sensor_id;sensor_type;location;lat;lon;timestamp;temperature;humidity
21834;DHT22;11079;51.092;3.458;2023-02-28T00:00:36;2.60;99.90
21834;DHT22;11079;51.092;3.458;2023-02-28T00:03:05;2.50;99.90
21834;DHT22;11079;51.092;3.458;2023-02-28T00:05:37;2.50;99.90
21834;DHT22;11079;51.092;3.458;2023-02-28T00:08:03;2.40;99.90
21834;DHT22;11079;51.092;3.458;2023-02-28T00:10:31;2.50;99.90
21834;DHT22;11079;51.092;3.458;2023-02-28T00:13:01;2.60;99.90
21834;DHT22;11079;51.092;3.458;2023-02-28T00:15:39;2.60;99.90
21834;DHT22;11079;51.092;3.458;2023-02-28T00:18:13;2.60;99.90
21834;DHT22;11079;51.092;3.458;2023-02-28T00:20:50;2.50;99.90
21834;DHT22;11079;51.092;3.458;2023-02-28T00:23:21;2.40;99.90
21834;DHT22;11079;51.092;3.458;2023-02-28T00:25:50;2.40;99.90
21834;DHT22;11079;51.092;3.458;2023-02-28T00:28:29;2.40;99.90
21834;DHT22;11079;51.092;3.458;2023-02-28T00:30:55;2.40;99.90
21834;DHT22;11079;51.092;3.458;2023-02-28T00:33:22;2.30;99.90
21834;DHT22;11079;51.092;3.458;2023-02-28T00:36:04;2.20;99.90
21834;DHT22;11079;51.092;3.458;2023-02-28T00:38:36;2.20;99.90
21834;DHT22;11079;51.092;3.458;2023-02-28T00:41:08;2.20;99.90
21834;DHT22;11079;51.092;3.458;2023-02-28T00:43:38;2.30;99.90
21834;DHT22;11079;51.092;3.458;2023-02-28T00:46:10;2.00;99.90
21834;DHT22;11079;51.092;3.458;2023-02-28T00:48:47;2.10;99.90
21834;DHT22;11079;51.092;3.458;2023-02-28T00:51:19;2.10;99.90
21834;DHT22;11079;51.092;3.458;2023-02-28T00:53:48;2.10;99.90
21834;DHT22;11079;51.092;3.458;2023-02-28T00:56:18;2.10;99.90
21834;DHT22;11079;51.092;3.458;2023-02-28T00:58:44;2.10;99.90
21834;DHT22;11079;51.092;3.458;2023-02-28T01:01:14;2.10;99.90
21834;DHT22;11079;51.092;3.458;2023-02-28T01:03:39;2.00;99.90
21834;DHT22;11079;51.092;3.458;2023-02-28T01:06:05;2.00;99.90
21834;DHT22;11079;51.092;3.458;2023-02-28T01:08:43;2.00;99.90
21834;DHT22;11079;51.092;3.458;2023-02-28T01:11:21;2.00;99.90
21834;DHT22;11079;51.092;3.458;2023-02-28T01:13:47;2.10;99.90
21834;DHT22;11079;51.092;3.458;2023-02-28T01:16:18;2.00;99.90
21834;DHT22;11079;51.092;3.458;2023-02-28T01:18:44;1.90;99.90
21834;DHT22;11079;51.092;3.458;2023-02-28T01:21:15;2.00;99.90
21834;DHT22;11079;51.092;3.458;2023-02-28T01:23:44;2.00;99.90
21834;DHT22;11079;51.092;3.458;2023-02-28T01:26:21;1.80;99.90
21834;DHT22;11079;51.092;3.458;2023-02-28T01:29:02;1.90;99.90
21834;DHT22;11079;51.092;3.458;2023-02-28T01:31:28;1.90;99.90
21834;DHT22;11079;51.092;3.458;2023-02-28T01:33:55;1.90;99.90
21834;DHT22;11079;51.092;3.458;2023-02-28T01:36:23;1.90;99.90
21834;DHT22;11079;51.092;3.458;2023-02-28T01:38:50;1.90;99.90
21834;DHT22;11079;51.092;3.458;2023-02-28T01:41:33;1.90;99.90
21834;DHT22;11079;51.092;3.458;2023-02-28T01:44:54;1.70;99.90
21834;DHT22;11079;51.092;3.458;2023-02-28T01:46:53;1.80;99.90
21834;DHT22;11079;51.092;3.458;2023-02-28T01:49:20;1.90;99.90
21834;DHT22;11079;51.092;3.458;2023-02-28T01:51:50;1.80;99.90
21834;DHT22;11079;51.092;3.458;2023-02-28T01:54:30;1.90;99.90
21834;DHT22;11079;51.092;3.458;2023-02-28T01:57:03;1.80;99.90
21834;DHT22;11079;51.092;3.458;2023-02-28T01:59:40;1.70;99.90
21834;DHT22;11079;51.092;3.458;2023-02-28T02:02:18;1.90;99.90
21834;DHT22;11079;51.092;3.458;2023-02-28T02:04:51;1.90;99.90
21834;DHT22;11079;51.092;3.458;2023-02-28T02:07:20;1.80;99.90
21834;DHT22;11079;51.092;3.458;2023-02-28T02:09:48;1.80;99.90
21834;DHT22;11079;51.092;3.458;2023-02-28T02:15:20;1.90;99.90
21834;DHT22;11079;51.092;3.458;2023-02-28T02:17:52;1.90;99.90
21834;DHT22;11079;51.092;3.458;2023-02-28T02:38:04;1.60;99.90
21834;DHT22;11079;51.092;3.458;2023-02-28T02:40:42;1.60;99.90
21834;DHT22;11079;51.092;3.458;2023-02-28T02:43:29;1.80;99.90
21834;DHT22;11079;51.092;3.458;2023-02-28T02:46:12;1.60;99.90
21834;DHT22;11079;51.092;3.458;2023-02-28T02:48:43;1.60;99.90
21834;DHT22;11079;51.092;3.458;2023-02-28T02:51:24;1.70;99.90
21834;DHT22;11079;51.092;3.458;2023-02-28T02:54:01;1.70;99.90
21834;DHT22;11079;51.092;3.458;2023-02-28T02:56:40;1.60;99.90
21834;DHT22;11079;51.092;3.458;2023-02-28T02:59:11;1.70;99.90
21834;DHT22;11079;51.092;3.458;2023-02-28T03:01:53;1.80;99.90
21834;DHT22;11079;51.092;3.458;2023-02-28T03:04:24;1.70;99.90
21834;DHT22;11079;51.092;3.458;2023-02-28T03:06:51;1.70;99.90
21834;DHT22;11079;51.092;3.458;2023-02-28T03:09:25;1.70;99.90
21834;DHT22;11079;51.092;3.458;2023-02-28T03:12:13;1.70;99.90
21834;DHT22;11079;51.092;3.458;2023-02-28T03:15:08;1.70;99.90
21834;DHT22;11079;51.092;3.458;2023-02-28T03:18:04;1.70;99.90
21834;DHT22;11079;51.092;3.458;2023-02-28T03:20:59;1.80;99.90
21834;DHT22;11079;51.092;3.458;2023-02-28T03:23:38;1.80;99.90
21834;DHT22;11079;51.092;3.458;2023-02-28T03:26:20;1.80;99.90
21834;DHT22;11079;51.092;3.458;2023-02-28T03:29:07;1.70;99.90
21834;DHT22;11079;51.092;3.458;2023-02-28T03:31:50;1.90;99.90
21834;DHT22;11079;51.092;3.458;2023-02-28T03:34:25;1.80;99.90
21834;DHT22;11079;51.092;3.458;2023-02-28T03:37:16;2.00;99.90
21834;DHT22;11079;51.092;3.458;2023-02-28T03:39:58;2.00;99.90
21834;DHT22;11079;51.092;3.458;2023-02-28T03:42:28;2.20;99.90
21834;DHT22;11079;51.092;3.458;2023-02-28T03:44:58;2.40;99.90
21834;DHT22;11079;51.092;3.458;2023-02-28T03:50:24;2.50;99.90
21834;DHT22;11079;51.092;3.458;2023-02-28T04:01:48;3.00;99.90
21834;DHT22;11079;51.092;3.458;2023-02-28T04:04:17;3.00;99.90
21834;DHT22;11079;51.092;3.458;2023-02-28T04:07:11;3.10;99.90
21834;DHT22;11079;51.092;3.458;2023-02-28T04:09:42;3.00;99.90
21834;DHT22;11079;51.092;3.458;2023-02-28T04:12:08;3.30;99.90
21834;DHT22;11079;51.092;3.458;2023-02-28T04:14:38;3.10;99.90
21834;DHT22;11079;51.092;3.458;2023-02-28T04:17:05;3.10;99.90
21834;DHT22;11079;51.092;3.458;2023-02-28T04:19:33;3.20;99.90
21834;DHT22;11079;51.092;3.458;2023-02-28T04:21:59;3.20;99.90
21834;DHT22;11079;51.092;3.458;2023-02-28T04:24:27;3.30;99.90
21834;DHT22;11079;51.092;3.458;2023-02-28T04:26:57;3.50;99.90
21834;DHT22;11079;51.092;3.458;2023-02-28T04:29:31;3.50;99.90
21834;DHT22;11079;51.092;3.458;2023-02-28T04:31:59;3.70;99.90
21834;DHT22;11079;51.092;3.458;2023-02-28T04:34:27;3.80;99.90
21834;DHT22;11079;51.092;3.458;2023-02-28T04:36:57;4.00;99.90
21834;DHT22;11079;51.092;3.458;2023-02-28T04:39:34;4.00;99.90
21834;DHT22;11079;51.092;3.458;2023-02-28T04:42:08;3.80;99.90
21834;DHT22;11079;51.092;3.458;2023-02-28T04:44:39;3.80;99.90
21834;DHT22;11079;51.092;3.458;2023-02-28T04:47:10;3.80;99.90
21834;DHT22;11079;51.092;3.458;2023-02-28T04:49:38;4.00;99.90
21834;DHT22;11079;51.092;3.458;2023-02-28T04:52:09;4.10;99.90
21834;DHT22;11079;51.092;3.458;2023-02-28T04:54:55;3.90;99.90
21834;DHT22;11079;51.092;3.458;2023-02-28T04:57:21;4.00;99.90
21834;DHT22;11079;51.092;3.458;2023-02-28T04:59:46;4.20;99.90
21834;DHT22;11079;51.092;3.458;2023-02-28T05:02:18;4.20;99.90
21834;DHT22;11079;51.092;3.458;2023-02-28T05:04:44;4.20;99.90
21834;DHT22;11079;51.092;3.458;2023-02-28T05:07:09;4.40;99.90
21834;DHT22;11079;51.092;3.458;2023-02-28T05:09:38;4.60;99.90
21834;DHT22;11079;51.092;3.458;2023-02-28T05:12:06;4.50;99.90
21834;DHT22;11079;51.092;3.458;2023-02-28T05:14:32;4.40;99.90
21834;DHT22;11079;51.092;3.458;2023-02-28T05:16:58;4.40;99.90
21834;DHT22;11079;51.092;3.458;2023-02-28T05:19:29;4.40;99.90
21834;DHT22;11079;51.092;3.458;2023-02-28T05:21:55;4.50;99.90
21834;DHT22;11079;51.092;3.458;2023-02-28T05:24:21;4.60;99.90
21834;DHT22;11079;51.092;3.458;2023-02-28T05:26:54;4.40;99.90
21834;DHT22;11079;51.092;3.458;2023-02-28T05:29:20;4.40;99.90
21834;DHT22;11079;51.092;3.458;2023-02-28T05:31:46;4.50;99.90
21834;DHT22;11079;51.092;3.458;2023-02-28T05:34:12;4.50;99.90
21834;DHT22;11079;51.092;3.458;2023-02-28T05:36:41;4.60;99.90
21834;DHT22;11079;51.092;3.458;2023-02-28T05:39:08;4.60;99.90
21834;DHT22;11079;51.092;3.458;2023-02-28T05:41:40;4.60;99.90
21834;DHT22;11079;51.092;3.458;2023-02-28T05:44:07;4.70;99.90
21834;DHT22;11079;51.092;3.458;2023-02-28T05:46:38;4.90;99.90
21834;DHT22;11079;51.092;3.458;2023-02-28T05:49:07;5.00;99.90
21834;DHT22;11079;51.092;3.458;2023-02-28T05:51:35;5.10;99.90
21834;DHT22;11079;51.092;3.458;2023-02-28T05:54:07;5.10;99.90
21834;DHT22;11079;51.092;3.458;2023-02-28T05:56:35;5.20;99.90
21834;DHT22;11079;51.092;3.458;2023-02-28T05:59:12;5.10;99.90
21834;DHT22;11079;51.092;3.458;2023-02-28T06:01:45;5.00;99.90
21834;DHT22;11079;51.092;3.458;2023-02-28T06:04:18;5.00;99.90
21834;DHT22;11079;51.092;3.458;2023-02-28T06:06:48;4.80;99.90
21834;DHT22;11079;51.092;3.458;2023-02-28T06:09:15;4.60;99.90
21834;DHT22;11079;51.092;3.458;2023-02-28T06:11:44;4.70;99.90
21834;DHT22;11079;51.092;3.458;2023-02-28T06:14:19;4.60;99.90
21834;DHT22;11079;51.092;3.458;2023-02-28T06:16:48;4.40;99.90
21834;DHT22;11079;51.092;3.458;2023-02-28T06:19:18;4.50;99.90
21834;DHT22;11079;51.092;3.458;2023-02-28T06:22:09;5.00;99.90
21834;DHT22;11079;51.092;3.458;2023-02-28T06:24:38;5.20;99.90
21834;DHT22;11079;51.092;3.458;2023-02-28T06:27:07;5.30;99.90
21834;DHT22;11079;51.092;3.458;2023-02-28T06:29:35;5.20;99.90
21834;DHT22;11079;51.092;3.458;2023-02-28T06:32:10;5.20;99.90
21834;DHT22;11079;51.092;3.458;2023-02-28T06:34:59;5.30;99.90
21834;DHT22;11079;51.092;3.458;2023-02-28T06:37:32;5.10;99.90
21834;DHT22;11079;51.092;3.458;2023-02-28T06:40:01;5.10;99.90
21834;DHT22;11079;51.092;3.458;2023-02-28T06:42:38;4.90;99.90
21834;DHT22;11079;51.092;3.458;2023-02-28T06:45:41;5.10;99.90
21834;DHT22;11079;51.092;3.458;2023-02-28T06:48:16;5.20;99.90
21834;DHT22;11079;51.092;3.458;2023-02-28T06:50:50;5.10;99.90
21834;DHT22;11079;51.092;3.458;2023-02-28T06:53:21;5.10;99.90
21834;DHT22;11079;51.092;3.458;2023-02-28T06:55:56;5.30;99.90
21834;DHT22;11079;51.092;3.458;2023-02-28T06:58:45;5.50;99.90
21834;DHT22;11079;51.092;3.458;2023-02-28T07:01:13;5.20;99.90
21834;DHT22;11079;51.092;3.458;2023-02-28T07:03:45;4.90;99.90
21834;DHT22;11079;51.092;3.458;2023-02-28T07:06:15;5.10;99.90
21834;DHT22;11079;51.092;3.458;2023-02-28T07:08:45;5.10;99.90
21834;DHT22;11079;51.092;3.458;2023-02-28T07:11:13;5.10;99.90
21834;DHT22;11079;51.092;3.458;2023-02-28T07:13:42;4.90;99.90
21834;DHT22;11079;51.092;3.458;2023-02-28T16:16:22;7.10;87.90
21834;DHT22;11079;51.092;3.458;2023-02-28T19:20:57;3.90;99.90
21834;DHT22;11079;51.092;3.458;2023-02-28T19:37:59;3.60;99.90
21834;DHT22;11079;51.092;3.458;2023-02-28T19:47:08;3.10;99.90
21834;DHT22;11079;51.092;3.458;2023-02-28T19:50:07;3.20;99.90
21834;DHT22;11079;51.092;3.458;2023-02-28T19:56:34;3.40;99.90
21834;DHT22;11079;51.092;3.458;2023-02-28T22:10:14;2.00;99.90
21834;DHT22;11079;51.092;3.458;2023-02-28T22:12:53;2.10;99.90
21834;DHT22;11079;51.092;3.458;2023-02-28T22:22:53;1.90;99.90
21834;DHT22;11079;51.092;3.458;2023-02-28T22:28:00;1.90;99.90
21834;DHT22;11079;51.092;3.458;2023-02-28T22:30:31;2.00;99.90
21834;DHT22;11079;51.092;3.458;2023-02-28T22:33:08;1.90;99.90
21834;DHT22;11079;51.092;3.458;2023-02-28T22:35:33;1.90;99.90
21834;DHT22;11079;51.092;3.458;2023-02-28T22:38:02;1.80;99.90
21834;DHT22;11079;51.092;3.458;2023-02-28T22:40:30;1.80;99.90
21834;DHT22;11079;51.092;3.458;2023-02-28T22:42:57;1.80;99.90
21834;DHT22;11079;51.092;3.458;2023-02-28T22:45:23;2.00;99.90
21834;DHT22;11079;51.092;3.458;2023-02-28T22:47:49;1.80;99.90
21834;DHT22;11079;51.092;3.458;2023-02-28T22:50:16;1.80;99.90
21834;DHT22;11079;51.092;3.458;2023-02-28T22:52:42;1.90;99.90
21834;DHT22;11079;51.092;3.458;2023-02-28T22:55:08;1.90;99.90
21834;DHT22;11079;51.092;3.458;2023-02-28T22:57:35;1.90;99.90
21834;DHT22;11079;51.092;3.458;2023-02-28T23:00:06;1.70;99.90
21834;DHT22;11079;51.092;3.458;2023-02-28T23:02:40;1.80;99.90
21834;DHT22;11079;51.092;3.458;2023-02-28T23:05:10;1.80;99.90
21834;DHT22;11079;51.092;3.458;2023-02-28T23:07:37;1.80;99.90
21834;DHT22;11079;51.092;3.458;2023-02-28T23:10:07;1.90;99.90
21834;DHT22;11079;51.092;3.458;2023-02-28T23:12:34;1.80;99.90
21834;DHT22;11079;51.092;3.458;2023-02-28T23:15:01;1.80;99.90
21834;DHT22;11079;51.092;3.458;2023-02-28T23:17:27;1.80;99.90
21834;DHT22;11079;51.092;3.458;2023-02-28T23:19:55;1.70;99.90
21834;DHT22;11079;51.092;3.458;2023-02-28T23:22:21;1.70;99.90
21834;DHT22;11079;51.092;3.458;2023-02-28T23:24:48;1.70;99.90
21834;DHT22;11079;51.092;3.458;2023-02-28T23:27:14;1.60;99.90
21834;DHT22;11079;51.092;3.458;2023-02-28T23:29:42;1.60;99.90
21834;DHT22;11079;51.092;3.458;2023-02-28T23:32:10;1.60;99.90
21834;DHT22;11079;51.092;3.458;2023-02-28T23:34:40;1.60;99.90
21834;DHT22;11079;51.092;3.458;2023-02-28T23:37:06;1.60;99.90
21834;DHT22;11079;51.092;3.458;2023-02-28T23:39:34;1.60;99.90
21834;DHT22;11079;51.092;3.458;2023-02-28T23:42:00;1.60;99.90
21834;DHT22;11079;51.092;3.458;2023-02-28T23:44:26;1.50;99.90
21834;DHT22;11079;51.092;3.458;2023-02-28T23:46:52;1.60;99.90
21834;DHT22;11079;51.092;3.458;2023-02-28T23:49:19;1.60;99.90
21834;DHT22;11079;51.092;3.458;2023-02-28T23:51:50;1.60;99.90
21834;DHT22;11079;51.092;3.458;2023-02-28T23:54:24;1.50;99.90
21834;DHT22;11079;51.092;3.458;2023-02-28T23:56:49;1.60;99.90
21834;DHT22;11079;51.092;3.458;2023-02-28T23:59:15;1.60;99.90
